createdAt,value
2018-02-12T00:01:02.784Z,70.04
2018-02-12T00:03:30.259Z,69.95
2018-02-12T00:05:57.748Z,70.24
2018-02-12T00:08:25.264Z,70.44
2018-02-12T00:10:52.798Z,70.46
2018-02-12T00:13:20.290Z,70.49
2018-02-12T00:15:47.870Z,70.36
2018-02-12T00:18:15.323Z,70.29
2018-02-12T00:20:42.780Z,70.06
2018-02-12T00:23:10.253Z,70.06
2018-02-12T00:25:38.215Z,69.94
2018-02-12T00:28:06.951Z,69.87
2018-02-12T00:30:34.467Z,69.85
2018-02-12T00:33:02.070Z,69.72
2018-02-12T00:35:29.115Z,69.31
2018-02-12T00:37:56.163Z,69.18
2018-02-12T00:40:23.182Z,69.31
2018-02-12T00:42:50.168Z,69.16
2018-02-12T00:45:17.199Z,69.36
2018-02-12T00:47:44.242Z,69.54
2018-02-12T00:50:11.231Z,69.50
2018-02-12T00:52:38.244Z,69.50
2018-02-12T00:55:05.326Z,69.42
2018-02-12T00:57:32.346Z,69.38
2018-02-12T00:59:59.413Z,69.22
2018-02-12T01:02:26.430Z,69.17
2018-02-12T01:04:53.503Z,69.02
2018-02-12T01:07:20.543Z,68.70
2018-02-12T01:09:47.597Z,68.52
2018-02-12T01:12:14.651Z,68.70
2018-02-12T01:14:41.653Z,68.60
2018-02-12T01:17:08.725Z,68.77
2018-02-12T01:19:35.721Z,68.79
2018-02-12T01:22:02.855Z,68.74
2018-02-12T01:24:30.174Z,68.95
2018-02-12T01:26:57.246Z,69.14
2018-02-12T01:29:24.278Z,69.54
2018-02-12T01:31:51.274Z,69.46
2018-02-12T01:34:18.750Z,69.62
2018-02-12T01:36:45.771Z,69.54
2018-02-12T01:39:12.845Z,69.80
2018-02-12T01:41:39.890Z,69.85
2018-02-12T01:44:06.941Z,69.63
2018-02-12T01:46:33.960Z,69.52
2018-02-12T01:49:01.036Z,69.48
2018-02-12T01:51:28.072Z,69.25
2018-02-12T01:53:55.122Z,69.12
2018-02-12T01:56:22.173Z,68.84
2018-02-12T01:58:49.256Z,68.73
2018-02-12T02:01:16.303Z,68.45
2018-02-12T02:03:43.362Z,68.29
2018-02-12T02:06:10.366Z,68.11
2018-02-12T02:08:37.396Z,68.08
2018-02-12T02:11:04.389Z,67.98
2018-02-12T02:13:31.466Z,67.44
2018-02-12T02:15:58.515Z,67.28
2018-02-12T02:18:25.528Z,67.06
2018-02-12T02:20:52.562Z,66.96
2018-02-12T02:23:19.569Z,66.74
2018-02-12T02:25:46.792Z,66.51
2018-02-12T02:28:13.797Z,66.34
2018-02-12T02:30:40.830Z,66.19
2018-02-12T02:33:07.813Z,66.09
2018-02-12T02:35:34.946Z,66.10
2018-02-12T02:38:01.945Z,65.67
2018-02-12T02:40:29.564Z,65.49
2018-02-12T02:42:56.562Z,65.83
2018-02-12T02:45:23.639Z,66.13
2018-02-12T02:47:50.691Z,66.55
2018-02-12T02:50:18.218Z,66.66
2018-02-12T02:52:45.929Z,66.79
2018-02-12T02:55:12.957Z,67.16
2018-02-12T02:57:39.947Z,67.07
2018-02-12T03:00:07.764Z,67.11
2018-02-12T03:02:34.810Z,67.17
2018-02-12T03:05:01.838Z,67.28
2018-02-12T03:07:28.845Z,67.10
2018-02-12T03:09:55.806Z,67.00
2018-02-12T03:12:22.881Z,67.24
2018-02-12T03:14:49.878Z,67.23
2018-02-12T03:17:16.929Z,67.08
2018-02-12T03:19:44.057Z,67.35
2018-02-12T03:22:11.188Z,67.32
2018-02-12T03:24:38.666Z,67.17
2018-02-12T03:27:06.073Z,66.98
2018-02-12T03:29:33.534Z,67.34
2018-02-12T03:32:01.016Z,67.39
2018-02-12T03:34:28.528Z,67.20
2018-02-12T03:36:55.999Z,67.11
2018-02-12T03:39:23.574Z,67.08
2018-02-12T03:41:51.033Z,67.01
2018-02-12T03:44:18.074Z,67.08
2018-02-12T03:46:45.085Z,68.12
2018-02-12T03:49:12.137Z,69.14
2018-02-12T03:51:39.192Z,69.68
2018-02-12T03:54:06.213Z,69.87
2018-02-12T03:56:33.332Z,69.81
2018-02-12T03:59:00.473Z,69.66
2018-02-12T04:01:27.503Z,69.59
2018-02-12T04:03:54.485Z,69.34
2018-02-12T04:06:21.552Z,68.76
2018-02-12T04:08:48.557Z,68.05
2018-02-12T04:11:15.596Z,67.00
2018-02-12T04:13:42.681Z,64.02
2018-02-12T04:16:09.721Z,63.38
2018-02-12T04:18:36.789Z,63.15
2018-02-12T04:21:03.855Z,62.81
2018-02-12T04:23:30.819Z,63.11
2018-02-12T04:25:58.046Z,63.69
2018-02-12T04:28:25.082Z,64.22
2018-02-12T04:30:52.032Z,64.38
2018-02-12T04:33:19.126Z,64.57
2018-02-12T04:35:46.136Z,64.56
2018-02-12T04:38:13.144Z,64.38
2018-02-12T04:40:40.731Z,64.05
2018-02-12T04:43:08.240Z,64.14
2018-02-12T04:45:35.641Z,64.24
2018-02-12T04:48:03.116Z,64.69
2018-02-12T04:50:30.544Z,64.83
2018-02-12T04:52:58.022Z,65.00
2018-02-12T04:55:25.576Z,65.38
2018-02-12T04:57:53.034Z,66.43
2018-02-12T05:00:20.125Z,66.81
2018-02-12T05:02:47.198Z,67.42
2018-02-12T05:05:14.167Z,68.45
2018-02-12T05:07:41.186Z,69.07
2018-02-12T05:10:08.238Z,69.56
2018-02-12T05:12:35.252Z,70.05
2018-02-12T05:15:02.956Z,70.83
2018-02-12T05:17:29.992Z,71.64
2018-02-12T05:19:57.219Z,72.16
2018-02-12T05:22:24.182Z,73.17
2018-02-12T05:24:51.185Z,74.20
2018-02-12T05:27:18.239Z,74.71
2018-02-12T05:29:45.263Z,75.07
2018-02-12T05:32:12.230Z,75.53
2018-02-12T05:34:39.261Z,75.67
2018-02-12T05:37:06.238Z,76.11
2018-02-12T05:39:33.243Z,76.36
2018-02-12T05:42:00.224Z,76.58
2018-02-12T05:44:27.167Z,76.68
2018-02-12T05:46:54.108Z,76.72
2018-02-12T05:49:21.182Z,77.31
2018-02-12T05:51:48.227Z,78.16
2018-02-12T05:54:15.272Z,78.20
2018-02-12T05:56:42.321Z,78.00
2018-02-12T05:59:09.497Z,77.65
2018-02-12T06:01:36.515Z,77.21
2018-02-12T06:04:03.534Z,76.97
2018-02-12T06:06:30.615Z,77.01
2018-02-12T06:08:57.660Z,77.05
2018-02-12T06:11:24.686Z,77.07
2018-02-12T06:13:51.731Z,77.27
2018-02-12T06:16:18.832Z,77.15
2018-02-12T06:18:45.946Z,76.63
2018-02-12T06:21:13.125Z,76.70
2018-02-12T06:23:40.135Z,76.80
2018-02-12T06:26:07.152Z,76.53
2018-02-12T06:28:34.193Z,75.92
2018-02-12T06:31:01.150Z,75.80
2018-02-12T06:33:28.212Z,76.25
2018-02-12T06:35:55.244Z,76.29
2018-02-12T06:38:22.296Z,75.70
2018-02-12T06:40:49.307Z,75.64
2018-02-12T06:43:16.277Z,75.88
2018-02-12T06:45:43.294Z,75.82
2018-02-12T06:48:10.368Z,74.68
2018-02-12T06:50:37.388Z,72.67
2018-02-12T06:53:04.472Z,67.26
2018-02-12T06:55:31.789Z,64.15
2018-02-12T06:57:58.825Z,63.00
2018-02-12T07:00:26.565Z,62.42
2018-02-12T07:02:53.661Z,61.08
2018-02-12T07:05:20.809Z,60.99
2018-02-12T07:07:47.850Z,61.38
2018-02-12T07:10:14.882Z,61.83
2018-02-12T07:12:41.864Z,62.48
2018-02-12T07:15:08.941Z,63.29
2018-02-12T07:17:35.890Z,63.75
2018-02-12T07:20:02.944Z,64.02
2018-02-12T07:22:29.987Z,66.17
2018-02-12T07:24:56.997Z,68.27
2018-02-12T07:27:24.039Z,68.94
2018-02-12T07:29:51.280Z,69.28
2018-02-12T07:32:18.293Z,68.63
2018-02-12T07:34:45.292Z,67.87
2018-02-12T07:37:12.305Z,67.09
2018-02-12T07:39:39.417Z,65.86
2018-02-12T07:42:06.421Z,64.51
2018-02-12T07:44:33.574Z,63.11
2018-02-12T07:47:00.612Z,58.26
2018-02-12T07:49:28.276Z,55.60
2018-02-12T07:51:55.736Z,57.19
2018-02-12T07:54:23.318Z,58.99
2018-02-12T07:56:50.787Z,60.00
2018-02-12T07:59:17.849Z,60.37
2018-02-12T08:01:45.201Z,60.22
2018-02-12T08:04:12.210Z,60.00
2018-02-12T08:06:39.189Z,57.29
2018-02-12T08:09:06.636Z,55.51
2018-02-12T08:11:34.150Z,54.28
2018-02-12T08:14:01.515Z,51.46
2018-02-12T08:16:28.565Z,52.27
2018-02-12T08:18:55.594Z,52.74
2018-02-12T08:21:22.598Z,53.25
2018-02-12T08:23:49.641Z,53.18
2018-02-12T08:26:17.163Z,53.15
2018-02-12T08:28:44.317Z,53.07
2018-02-12T08:31:11.372Z,53.00
2018-02-12T08:33:38.373Z,52.87
2018-02-12T08:36:05.302Z,53.26
2018-02-12T08:38:32.367Z,53.51
2018-02-12T08:40:59.581Z,53.67
2018-02-12T08:43:26.606Z,53.68
2018-02-12T08:45:53.590Z,52.66
2018-02-12T08:48:20.698Z,51.32
2018-02-12T08:50:47.761Z,50.48
2018-02-12T08:53:14.802Z,49.19
2018-02-12T08:55:42.814Z,48.59
2018-02-12T08:58:09.825Z,47.38
2018-02-12T09:00:36.886Z,41.35
2018-02-12T09:03:03.849Z,34.46
2018-02-12T09:05:30.886Z,29.85
2018-02-12T09:07:58.104Z,28.32
2018-02-12T09:10:25.111Z,27.27
2018-02-12T09:12:52.168Z,25.62
2018-02-12T09:15:19.250Z,27.87
2018-02-12T09:17:46.258Z,30.63
2018-02-12T09:20:13.283Z,33.82
2018-02-12T09:22:40.391Z,36.67
2018-02-12T09:25:07.360Z,32.90
2018-02-12T09:27:34.374Z,28.71
2018-02-12T09:30:01.414Z,26.97
2018-02-12T09:32:28.442Z,25.04
2018-02-12T09:34:55.420Z,24.54
2018-02-12T09:37:22.465Z,24.46
2018-02-12T09:39:49.477Z,23.76
2018-02-12T09:42:16.517Z,22.99
2018-02-12T09:44:43.530Z,22.58
2018-02-12T09:47:10.568Z,22.08
2018-02-12T09:49:37.606Z,22.07
2018-02-12T09:52:04.675Z,21.66
2018-02-12T09:54:31.726Z,22.11
2018-02-12T09:56:58.756Z,22.79
2018-02-12T09:59:25.836Z,21.79
2018-02-12T10:01:52.820Z,20.45
2018-02-12T10:04:19.862Z,20.56
2018-02-12T10:06:46.926Z,20.99
2018-02-12T10:09:13.944Z,21.42
2018-02-12T10:11:41.034Z,20.43
2018-02-12T10:14:08.178Z,19.82
2018-02-12T10:16:35.175Z,19.60
2018-02-12T10:19:02.276Z,20.27
2018-02-12T10:21:29.324Z,20.29
2018-02-12T10:23:56.332Z,21.21
2018-02-12T10:26:23.335Z,22.47
2018-02-12T10:28:50.360Z,22.30
2018-02-12T10:31:17.415Z,22.18
2018-02-12T10:33:44.384Z,23.12
2018-02-12T10:36:11.402Z,21.61
2018-02-12T10:38:40.071Z,21.12
2018-02-12T10:41:07.292Z,20.86
2018-02-12T10:43:34.312Z,20.39
2018-02-12T10:46:01.337Z,20.77
2018-02-12T10:48:28.698Z,21.01
2018-02-12T10:50:55.955Z,23.59
2018-02-12T10:53:23.233Z,24.10
2018-02-12T10:55:50.260Z,26.43
2018-02-12T10:58:17.292Z,28.52
2018-02-12T11:00:44.304Z,30.42
2018-02-12T11:03:11.328Z,32.25
2018-02-12T11:05:38.332Z,32.64
2018-02-12T11:08:05.341Z,30.61
2018-02-12T11:10:32.416Z,29.86
2018-02-12T11:12:59.479Z,29.92
2018-02-12T11:15:26.636Z,29.99
2018-02-12T11:17:53.681Z,31.45
2018-02-12T11:20:20.753Z,31.75
2018-02-12T11:22:47.985Z,31.28
2018-02-12T11:25:15.044Z,30.52
2018-02-12T11:27:42.101Z,28.83
2018-02-12T11:30:09.124Z,26.78
2018-02-12T11:32:36.170Z,28.44
2018-02-12T11:35:03.143Z,30.71
2018-02-12T11:37:30.182Z,31.38
2018-02-12T11:39:57.180Z,32.08
2018-02-12T11:42:24.217Z,30.23
2018-02-12T11:44:51.306Z,25.49
2018-02-12T11:47:18.283Z,21.58
2018-02-12T11:49:45.312Z,19.57
2018-02-12T11:52:12.366Z,18.98
2018-02-12T11:54:39.458Z,18.27
2018-02-12T11:57:06.465Z,19.40
2018-02-12T11:59:33.514Z,20.31
2018-02-12T12:02:00.576Z,22.89
2018-02-12T12:04:27.607Z,21.58
2018-02-12T12:06:54.649Z,18.99
2018-02-12T12:09:21.638Z,18.46
2018-02-12T12:11:48.702Z,17.37
2018-02-12T12:14:15.706Z,17.31
2018-02-12T12:16:42.981Z,18.24
2018-02-12T12:19:10.105Z,17.94
2018-02-12T12:21:37.127Z,18.26
2018-02-12T12:24:04.147Z,20.12
2018-02-12T12:26:31.200Z,20.28
2018-02-12T12:28:58.233Z,20.02
2018-02-12T12:31:25.289Z,19.26
2018-02-12T12:33:52.409Z,18.61
2018-02-12T12:36:19.407Z,18.65
2018-02-12T12:38:46.375Z,17.45
2018-02-12T12:41:13.437Z,17.74
2018-02-12T12:43:40.444Z,18.04
2018-02-12T12:46:07.505Z,19.41
2018-02-12T12:48:34.880Z,19.95
2018-02-12T12:51:01.983Z,19.99
2018-02-12T12:53:28.995Z,24.27
2018-02-12T12:55:56.254Z,28.41
2018-02-12T12:58:23.359Z,31.23
2018-02-12T13:00:50.445Z,31.87
2018-02-12T13:03:17.471Z,30.66
2018-02-12T13:05:44.410Z,25.32
2018-02-12T13:08:11.458Z,22.56
2018-02-12T13:10:38.520Z,21.74
2018-02-12T13:13:05.754Z,20.90
2018-02-12T13:15:32.734Z,20.31
2018-02-12T13:17:59.833Z,19.43
2018-02-12T13:20:26.869Z,19.68
2018-02-12T13:22:54.018Z,19.72
2018-02-12T13:25:21.129Z,18.99
2018-02-12T13:27:48.190Z,18.30
2018-02-12T13:30:15.276Z,18.06
2018-02-12T13:32:42.265Z,17.33
2018-02-12T13:35:09.266Z,16.36
2018-02-12T13:37:36.248Z,19.16
2018-02-12T13:40:03.469Z,23.79
2018-02-12T13:42:30.476Z,26.63
2018-02-12T13:44:57.548Z,27.94
2018-02-12T13:47:24.601Z,28.77
2018-02-12T13:49:51.646Z,29.19
2018-02-12T13:52:18.672Z,29.58
2018-02-12T13:54:46.019Z,30.72
2018-02-12T13:57:13.034Z,31.71
2018-02-12T13:59:40.681Z,34.24
2018-02-12T14:02:07.716Z,35.25
2018-02-12T14:04:34.815Z,34.09
2018-02-12T14:07:01.803Z,32.01
2018-02-12T14:09:28.746Z,27.73
2018-02-12T14:11:55.779Z,24.97
2018-02-12T14:14:22.997Z,23.15
2018-02-12T14:16:50.078Z,21.37
2018-02-12T14:19:17.159Z,21.00
2018-02-12T14:21:44.207Z,20.31
2018-02-12T14:24:11.207Z,19.99
2018-02-12T14:26:38.229Z,19.44
2018-02-12T14:29:05.271Z,19.12
2018-02-12T14:31:32.264Z,19.00
2018-02-12T14:33:59.443Z,17.98
2018-02-12T14:36:26.420Z,18.14
2018-02-12T14:38:53.465Z,17.67
2018-02-12T14:41:20.521Z,17.02
2018-02-12T14:43:47.639Z,16.29
2018-02-12T14:46:14.723Z,16.07
2018-02-12T14:48:41.766Z,16.85
2018-02-12T14:51:08.877Z,16.47
2018-02-12T14:53:35.886Z,17.16
2018-02-12T14:56:03.110Z,18.17
2018-02-12T14:58:30.328Z,19.00
2018-02-12T15:00:57.320Z,19.78
2018-02-12T15:03:24.327Z,20.10
2018-02-12T15:05:51.363Z,19.32
2018-02-12T15:08:18.601Z,17.35
2018-02-12T15:10:45.593Z,16.55
2018-02-12T15:13:12.823Z,16.79
2018-02-12T15:15:40.074Z,19.76
2018-02-12T15:18:07.154Z,23.05
2018-02-12T15:20:34.225Z,27.17
2018-02-12T15:23:01.311Z,29.38
2018-02-12T15:25:28.316Z,31.48
2018-02-12T15:27:55.319Z,34.25
2018-02-12T15:30:22.316Z,35.66
2018-02-12T15:32:50.073Z,36.78
2018-02-12T15:35:17.268Z,37.21
2018-02-12T15:37:44.289Z,38.33
2018-02-12T15:40:11.356Z,38.86
2018-02-12T15:42:38.410Z,39.54
2018-02-12T15:45:05.467Z,39.46
2018-02-12T15:47:32.506Z,39.36
2018-02-12T15:49:59.566Z,39.57
2018-02-12T15:52:26.624Z,39.49
2018-02-12T15:54:53.633Z,39.35
2018-02-12T15:57:20.697Z,39.30
2018-02-12T15:59:49.251Z,39.13
2018-02-12T16:02:16.289Z,39.05
2018-02-12T16:04:43.306Z,38.90
2018-02-12T16:07:10.330Z,38.86
2018-02-12T16:09:37.481Z,38.65
2018-02-12T16:12:04.558Z,36.23
2018-02-12T16:14:31.600Z,32.14
2018-02-12T16:16:58.677Z,31.36
2018-02-12T16:19:25.715Z,33.59
2018-02-12T16:21:52.777Z,35.15
2018-02-12T16:24:19.883Z,35.72
2018-02-12T16:26:46.886Z,36.75
2018-02-12T16:29:13.927Z,37.56
2018-02-12T16:31:40.921Z,37.97
2018-02-12T16:34:07.971Z,38.02
2018-02-12T16:36:34.990Z,38.36
2018-02-12T16:39:02.009Z,38.36
2018-02-12T16:41:29.016Z,38.36
2018-02-12T16:43:56.015Z,38.65
2018-02-12T16:46:22.988Z,38.68
2018-02-12T16:48:50.039Z,38.77
2018-02-12T16:51:17.098Z,39.00
2018-02-12T16:53:44.142Z,39.12
2018-02-12T16:56:11.123Z,39.24
2018-02-12T16:58:38.227Z,39.13
2018-02-12T17:01:05.303Z,39.13
2018-02-12T17:03:32.364Z,39.37
2018-02-12T17:05:59.402Z,39.19
2018-02-12T17:08:26.479Z,39.27
2018-02-12T17:10:53.498Z,39.18
2018-02-12T17:13:20.580Z,39.15
2018-02-12T17:15:47.636Z,39.17
2018-02-12T17:18:14.681Z,39.63
2018-02-12T17:20:41.864Z,39.72
2018-02-12T17:23:09.029Z,39.79
2018-02-12T17:25:36.092Z,39.99
2018-02-12T17:28:03.268Z,40.04
2018-02-12T17:30:30.526Z,40.24
2018-02-12T17:32:57.588Z,40.37
2018-02-12T17:35:24.595Z,40.53
2018-02-12T17:37:51.611Z,40.73
2018-02-12T17:40:18.637Z,41.15
2018-02-12T17:42:45.743Z,41.27
2018-02-12T17:45:12.746Z,41.48
2018-02-12T17:47:39.779Z,41.68
2018-02-12T17:50:07.261Z,42.00
2018-02-12T17:52:34.503Z,42.47
2018-02-12T17:55:01.611Z,42.86
2018-02-12T17:57:28.629Z,43.23
2018-02-12T17:59:55.711Z,43.57
2018-02-12T18:02:22.903Z,43.87
2018-02-12T18:04:49.914Z,44.06
2018-02-12T18:07:16.995Z,44.36
2018-02-12T18:09:44.045Z,44.88
2018-02-12T18:12:11.098Z,44.87
2018-02-12T18:14:38.190Z,45.00
2018-02-12T18:17:05.263Z,45.18
2018-02-12T18:19:32.266Z,45.31
2018-02-12T18:21:59.279Z,45.36
2018-02-12T18:24:26.383Z,45.43
2018-02-12T18:26:53.412Z,45.42
2018-02-12T18:29:20.540Z,45.46
2018-02-12T18:31:47.616Z,45.43
2018-02-12T18:34:14.652Z,45.56
2018-02-12T18:36:41.719Z,45.72
2018-02-12T18:39:08.782Z,45.61
2018-02-12T18:41:35.833Z,45.80
2018-02-12T18:44:02.880Z,45.83
2018-02-12T18:46:29.980Z,45.78
2018-02-12T18:48:57.022Z,45.53
2018-02-12T18:51:24.037Z,45.53
2018-02-12T18:53:51.066Z,45.76
2018-02-12T18:56:18.094Z,45.90
2018-02-12T18:58:45.040Z,45.78
2018-02-12T19:01:12.124Z,46.01
2018-02-12T19:03:39.132Z,45.86
2018-02-12T19:06:06.170Z,45.74
2018-02-12T19:08:33.253Z,45.84
2018-02-12T19:11:00.272Z,45.73
2018-02-12T19:13:27.492Z,45.73
2018-02-12T19:15:54.575Z,45.95
2018-02-12T19:18:21.630Z,46.03
2018-02-12T19:20:48.842Z,46.13
2018-02-12T19:23:15.909Z,46.14
2018-02-12T19:25:42.915Z,46.16
2018-02-12T19:28:09.926Z,46.38
2018-02-12T19:30:36.949Z,46.38
2018-02-12T19:33:03.989Z,46.47
2018-02-12T19:35:31.038Z,46.73
2018-02-12T19:37:58.066Z,47.04
2018-02-12T19:40:25.067Z,47.10
2018-02-12T19:42:52.118Z,47.15
2018-02-12T19:45:19.125Z,47.05
2018-02-12T19:47:46.130Z,47.02
2018-02-12T19:50:13.170Z,47.07
2018-02-12T19:52:40.171Z,47.63
2018-02-12T19:55:07.246Z,48.07
2018-02-12T19:57:34.275Z,47.78
2018-02-12T20:00:01.315Z,47.03
2018-02-12T20:02:28.332Z,46.61
2018-02-12T20:04:55.391Z,46.44
2018-02-12T20:07:22.420Z,46.53
2018-02-12T20:09:49.401Z,46.51
2018-02-12T20:12:16.397Z,46.54
2018-02-12T20:14:43.427Z,46.70
2018-02-12T20:17:10.458Z,46.94
2018-02-12T20:19:37.501Z,47.09
2018-02-12T20:22:04.450Z,47.08
2018-02-12T20:24:31.525Z,47.04
2018-02-12T20:26:58.572Z,47.01
2018-02-12T20:29:25.617Z,47.09
2018-02-12T20:31:52.669Z,47.12
2018-02-12T20:34:19.678Z,47.33
2018-02-12T20:36:46.727Z,47.38
2018-02-12T20:39:16.710Z,47.35
2018-02-12T20:41:43.712Z,47.30
2018-02-12T20:44:11.078Z,47.25
2018-02-12T20:46:38.079Z,47.34
2018-02-12T20:49:05.099Z,47.61
2018-02-12T20:51:32.133Z,47.89
2018-02-12T20:53:59.201Z,48.25
2018-02-12T20:56:26.205Z,48.53
2018-02-12T20:58:53.263Z,49.00
2018-02-12T21:01:20.324Z,49.35
2018-02-12T21:03:47.388Z,49.62
2018-02-12T21:06:14.357Z,50.04
2018-02-12T21:08:41.389Z,50.15
2018-02-12T21:11:08.457Z,50.42
2018-02-12T21:13:35.499Z,50.65
2018-02-12T21:16:02.527Z,50.63
2018-02-12T21:18:29.565Z,50.84
2018-02-12T21:20:56.609Z,51.21
2018-02-12T21:23:23.567Z,51.38
2018-02-12T21:25:50.569Z,51.50
2018-02-12T21:28:17.580Z,52.13
2018-02-12T21:30:44.592Z,52.31
2018-02-12T21:33:11.597Z,52.59
2018-02-12T21:35:38.670Z,52.63
2018-02-12T21:38:05.713Z,52.65
2018-02-12T21:40:32.835Z,52.99
2018-02-12T21:42:59.795Z,53.22
2018-02-12T21:45:26.801Z,53.22
2018-02-12T21:47:53.931Z,53.05
2018-02-12T21:50:20.972Z,52.73
2018-02-12T21:52:48.030Z,52.21
2018-02-12T21:55:15.070Z,51.55
2018-02-12T21:57:42.066Z,51.26
2018-02-12T22:00:09.494Z,50.89
2018-02-12T22:02:36.568Z,50.75
2018-02-12T22:05:03.618Z,50.66
2018-02-12T22:07:30.675Z,50.48
2018-02-12T22:09:57.716Z,50.33
2018-02-12T22:12:24.767Z,50.36
2018-02-12T22:14:51.763Z,49.86
2018-02-12T22:17:18.761Z,49.17
2018-02-12T22:19:45.711Z,48.81
2018-02-12T22:22:12.736Z,49.05
2018-02-12T22:24:39.742Z,49.29
2018-02-12T22:27:06.827Z,49.41
2018-02-12T22:29:33.850Z,49.34
2018-02-12T22:32:00.894Z,49.13
2018-02-12T22:34:27.954Z,48.83
2018-02-12T22:36:55.015Z,48.87
2018-02-12T22:39:22.065Z,48.95
2018-02-12T22:41:49.033Z,48.97
2018-02-12T22:44:16.032Z,48.91
2018-02-12T22:46:43.041Z,49.04
2018-02-12T22:49:10.103Z,48.47
2018-02-12T22:51:37.304Z,47.77
2018-02-12T22:54:04.339Z,47.20
2018-02-12T22:56:31.371Z,46.81
2018-02-12T22:58:58.541Z,46.14
2018-02-12T23:01:25.610Z,46.02
2018-02-12T23:03:52.661Z,46.08
2018-02-12T23:06:19.693Z,46.04
2018-02-12T23:08:46.991Z,46.04
2018-02-12T23:11:14.001Z,45.92
2018-02-12T23:13:41.029Z,45.99
2018-02-12T23:16:08.100Z,46.05
2018-02-12T23:18:36.054Z,45.99
2018-02-12T23:21:03.165Z,46.08
2018-02-12T23:23:30.369Z,46.07
2018-02-12T23:25:57.420Z,46.50
2018-02-12T23:28:24.498Z,46.54
2018-02-12T23:30:51.562Z,46.83
2018-02-12T23:33:18.623Z,46.87
2018-02-12T23:35:45.578Z,46.75
2018-02-12T23:38:12.645Z,47.06
2018-02-12T23:40:39.607Z,47.18
2018-02-12T23:43:06.625Z,47.13
2018-02-12T23:45:33.650Z,47.11
2018-02-12T23:48:00.678Z,47.17
2018-02-12T23:50:27.696Z,47.28
2018-02-12T23:52:54.713Z,47.38
2018-02-12T23:55:22.146Z,47.61
2018-02-12T23:57:49.202Z,47.76
